CA-0514 weather

Long Sault Airstrip
Ontario, Canada

Public forecast

Using degrees Celsius for public forecast. Weather courtesy of forecast.io.

Closest aviation weather report (METAR) to Long Sault Airstrip

Closest report is Massena International Richards Field, 6.3 nm (11.6 km) S. Retrieved 2020/02/19 12:53 UTC (13 minutes ago):

KMSS 191253Z AUTO 26018G25KT 10SM OVC075 M02/M13 A3012 RMK AO2 PK WND 25034/1155 SLP204 T10221133

Closest aviation forecast (TAF) to Long Sault Airstrip

Forecast is more than 6 hours old.

Closest forecast is Massena International Richards Field, 6.3 nm (11.6 km) S. Retrieved 2020/02/19 06:39 UTC (6 hours ago):

TAF KMSS 190536Z 1906/2006 25012G22KT P6SM OVC040 FM191000 26010G20KT P6SM VCSH BKN025 TEMPO 1911/1913 3SM -SN BR BKN020 FM191400 26013G25KT P6SM SCT050 FM200000 31007KT P6SM BKN045